Terminal Aerodrome Forecast
Issued by NWS

Home | Current Version | Previous Version | Text Only | Print | Product List | Glossary Off
Versions: 1 2 3 4 5 6 7 8 9 10 11 12 13 14 15 16 17 18 19 20 21 22 23 24 25 26 27 28 29 30 31 32 33 34 35 36

000
FTUS43 KLOT 281556 AAB
TAFORD
TAF AMD
KORD 281556Z 2816/2918 16006KT P6SM SCT250
     FM281900 11010KT P6SM SCT250
     FM290100 10008KT P6SM FEW050 BKN250
     FM290900 15004KT P6SM SCT040 BKN100
     FM291300 18010KT P6SM -SHRA BKN040 BKN080 PROB30 2913/2918
      -TSRA BKN040CB=

USA.gov is the U.S. government's official web portal to all federal, state and local government web resources and services.